createdAt,value
2022-07-27T00:01:39.368Z,42.44
2022-07-27T00:06:31.717Z,42.42
2022-07-27T00:11:24.338Z,42.35
2022-07-27T00:16:16.845Z,42.32
2022-07-27T00:21:09.316Z,42.23
2022-07-27T00:26:02.094Z,42.25
2022-07-27T00:30:54.676Z,42.05
2022-07-27T00:35:47.243Z,41.98
2022-07-27T00:40:39.991Z,41.91
2022-07-27T00:45:32.843Z,41.87
2022-07-27T00:50:25.696Z,42.03
2022-07-27T00:55:18.152Z,41.89
2022-07-27T01:00:10.759Z,41.72
2022-07-27T01:05:03.552Z,41.8
2022-07-27T01:09:56.176Z,41.95
2022-07-27T01:14:48.467Z,41.9
2022-07-27T01:19:40.938Z,41.83
2022-07-27T01:24:33.223Z,41.75
2022-07-27T01:29:25.917Z,41.59
2022-07-27T01:34:18.600Z,41.62
2022-07-27T01:39:11.585Z,41.68
2022-07-27T01:44:04.157Z,41.59
2022-07-27T01:48:56.952Z,41.32
2022-07-27T01:53:49.500Z,41.33
2022-07-27T01:58:42.372Z,41.13
2022-07-27T02:03:34.941Z,41.21
2022-07-27T02:08:27.573Z,41.13
2022-07-27T02:13:22.651Z,40.79
2022-07-27T02:18:18.846Z,40.42
2022-07-27T02:23:05.687Z,39.79
2022-07-27T02:27:58.182Z,39.51
2022-07-27T02:32:50.908Z,39.49
2022-07-27T02:37:43.628Z,39.56
2022-07-27T02:42:36.253Z,39.21
2022-07-27T02:47:28.736Z,39.38
2022-07-27T02:52:21.277Z,38.86
2022-07-27T02:57:13.781Z,38.83
2022-07-27T03:02:06.314Z,39.29
2022-07-27T03:06:59.051Z,39.22
2022-07-27T03:11:51.228Z,38.66
2022-07-27T03:16:43.924Z,38.65
2022-07-27T03:21:36.335Z,38.22
2022-07-27T03:26:29.139Z,37.06
2022-07-27T03:31:21.645Z,37.43
2022-07-27T03:36:14.110Z,37.26
2022-07-27T03:41:06.574Z,37.74
2022-07-27T03:45:59.492Z,37.82
2022-07-27T03:50:51.898Z,37.57
2022-07-27T03:55:44.464Z,37.39
2022-07-27T04:00:37.051Z,37.14
2022-07-27T04:05:29.899Z,37.22
2022-07-27T04:10:22.032Z,37.46
2022-07-27T04:15:14.658Z,37.05
2022-07-27T04:20:07.290Z,37.23
2022-07-27T04:29:52.425Z,36.92
2022-07-27T04:39:37.497Z,36.75
2022-07-27T04:49:21.268Z,37.84
2022-07-27T04:54:13.663Z,37.06
2022-07-27T04:59:06.056Z,38.34
2022-07-27T05:03:58.935Z,38.98
2022-07-27T05:08:51.638Z,37.62
2022-07-27T05:13:43.827Z,40.23
2022-07-27T05:18:36.030Z,39.4
2022-07-27T05:23:28.190Z,37.97
2022-07-27T05:28:20.954Z,37.92
2022-07-27T05:33:14.051Z,37.57
2022-07-27T05:38:06.944Z,39.5
2022-07-27T05:42:59.407Z,37.05
2022-07-27T05:47:51.987Z,37.49
2022-07-27T05:52:43.909Z,37.3
2022-07-27T05:57:36.669Z,38.14
2022-07-27T06:02:29.410Z,37.83
2022-07-27T06:07:21.173Z,38.6
2022-07-27T06:12:13.893Z,38.56
2022-07-27T06:17:05.821Z,39.56
2022-07-27T06:21:58.497Z,38.53
2022-07-27T06:26:51.095Z,37.78
2022-07-27T06:31:42.991Z,38.22
2022-07-27T06:36:34.930Z,39.62
2022-07-27T06:41:27.318Z,39.26
2022-07-27T06:46:19.742Z,39.15
2022-07-27T06:51:12.723Z,38.89
2022-07-27T06:56:04.864Z,39.49
2022-07-27T07:00:57.878Z,38.88
2022-07-27T07:05:49.853Z,39.02
2022-07-27T07:10:42.493Z,38.46
2022-07-27T07:15:35.112Z,38.38
2022-07-27T07:20:27.809Z,37.89
2022-07-27T07:25:20.519Z,37.72
2022-07-27T07:30:12.936Z,37.65
2022-07-27T07:35:05.095Z,38.47
2022-07-27T07:40:04.463Z,37
2022-07-27T07:44:51.448Z,36.69
2022-07-27T07:49:44.324Z,36.67
2022-07-27T07:54:36.903Z,36.55
2022-07-27T07:59:29.470Z,36.52
2022-07-27T08:04:21.834Z,36.36
2022-07-27T08:09:14.948Z,36.35
2022-07-27T08:14:07.104Z,36.48
2022-07-27T08:18:59.625Z,36.3
2022-07-27T08:23:52.333Z,36.12
2022-07-27T08:28:45.061Z,36.09
2022-07-27T08:33:39.795Z,36.12
2022-07-27T08:38:30.197Z,36.08
2022-07-27T08:43:25.098Z,36
2022-07-27T08:48:15.609Z,36.03
2022-07-27T08:53:08.342Z,36.11
2022-07-27T08:58:03.332Z,35.98
2022-07-27T09:02:53.807Z,36.05
2022-07-27T09:07:46.508Z,36.07
2022-07-27T09:12:38.899Z,36.22
2022-07-27T09:17:48.798Z,36.16
2022-07-27T09:22:24.209Z,36.08
2022-07-27T09:27:16.942Z,36.2
2022-07-27T09:32:09.416Z,36.04
2022-07-27T09:37:02.232Z,36.02
2022-07-27T09:41:55.304Z,35.78
2022-07-27T09:46:47.224Z,36.36
2022-07-27T09:52:06.083Z,35.85
2022-07-27T09:56:32.350Z,35.82
2022-07-27T10:01:25.066Z,35.92
2022-07-27T10:06:17.593Z,36.25
2022-07-27T10:11:10.296Z,36.3
2022-07-27T10:16:02.824Z,35.56
2022-07-27T10:20:55.590Z,35.24
2022-07-27T10:25:48.413Z,34.88
2022-07-27T10:30:41.030Z,34.93
2022-07-27T10:35:33.730Z,35.11
2022-07-27T10:40:26.602Z,34.85
2022-07-27T10:45:19.433Z,34.66
2022-07-27T10:50:12.017Z,33.42
2022-07-27T10:55:04.252Z,33.64
2022-07-27T11:04:49.452Z,33.41
2022-07-27T11:14:34.406Z,33.84
2022-07-27T11:24:19.997Z,33.42
2022-07-27T11:34:05.221Z,33.26
2022-07-27T11:43:50.289Z,33.19
2022-07-27T11:49:04.220Z,33.4
2022-07-27T11:53:35.901Z,33.2
2022-07-27T11:58:28.465Z,33.26
2022-07-27T12:03:20.984Z,33.64
2022-07-27T12:08:13.584Z,33.33
2022-07-27T12:13:05.782Z,33.56
2022-07-27T12:17:58.431Z,33.41
2022-07-27T12:22:50.966Z,33.3
2022-07-27T12:27:43.538Z,33.42
2022-07-27T12:32:36.519Z,33.58
2022-07-27T12:37:29.116Z,33.72
2022-07-27T12:42:21.509Z,33.17
2022-07-27T12:47:14.138Z,33.04
2022-07-27T12:52:06.494Z,32.94
2022-07-27T12:56:59.164Z,33.01
2022-07-27T13:01:52.060Z,33
2022-07-27T13:06:44.453Z,33.09
2022-07-27T13:11:37.020Z,33.34
2022-07-27T13:16:29.705Z,32.99
2022-07-27T13:21:22.125Z,32.98
2022-07-27T13:26:14.742Z,33.18
2022-07-27T13:31:07.263Z,33
2022-07-27T13:36:00.699Z,32.79
2022-07-27T13:40:52.479Z,32.71
2022-07-27T13:45:45.054Z,32.9
2022-07-27T13:50:37.673Z,33.18
2022-07-27T13:55:32.477Z,32.89
2022-07-27T14:00:24.731Z,32.96
2022-07-27T14:05:18.387Z,32.79
2022-07-27T14:10:10.226Z,33.21
2022-07-27T14:15:02.665Z,33.58
2022-07-27T14:19:55.240Z,33.13
2022-07-27T14:24:48.059Z,33.13
2022-07-27T14:29:40.804Z,33.16
2022-07-27T14:34:33.574Z,33.32
2022-07-27T14:39:25.901Z,33.5
2022-07-27T14:44:18.845Z,33.27
2022-07-27T14:49:10.810Z,33.28
2022-07-27T14:54:03.625Z,33.14
2022-07-27T14:58:56.054Z,33.13
2022-07-27T15:03:48.592Z,33.16
2022-07-27T15:08:41.188Z,32.98
2022-07-27T15:13:34.113Z,32.55
2022-07-27T15:18:26.891Z,32.62
2022-07-27T15:23:19.494Z,32.46
2022-07-27T15:28:12.341Z,31.72
2022-07-27T15:33:05.073Z,31.72
2022-07-27T15:37:57.723Z,32.4
2022-07-27T15:42:50.261Z,32.68
2022-07-27T15:47:42.909Z,32.48
2022-07-27T15:52:35.569Z,32.46
2022-07-27T15:57:28.281Z,31.9
2022-07-27T16:02:24.674Z,32.21
2022-07-27T16:07:13.274Z,32.03
2022-07-27T16:12:05.875Z,32.17
2022-07-27T16:16:59.134Z,31.69
2022-07-27T16:21:54.496Z,31.62
2022-07-27T16:26:43.789Z,31.56
2022-07-27T16:31:36.470Z,31.38
2022-07-27T16:36:34.064Z,31.43
2022-07-27T16:41:23.268Z,30.95
2022-07-27T16:46:15.797Z,30.81
2022-07-27T16:51:08.444Z,30.66
2022-07-27T16:56:00.662Z,30.65
2022-07-27T17:00:53.335Z,30.88
2022-07-27T17:05:45.832Z,30.29
2022-07-27T17:10:38.514Z,30.49
2022-07-27T17:20:27.856Z,30.14
2022-07-27T17:30:09.137Z,29.96
2022-07-27T17:39:54.111Z,29.96
2022-07-27T17:44:46.837Z,29.77
2022-07-27T17:49:39.476Z,29.9
2022-07-27T17:54:32.112Z,29.91
2022-07-27T17:59:37.394Z,30.23
2022-07-27T18:04:16.918Z,30.57
2022-07-27T18:09:09.496Z,30.5
2022-07-27T18:14:02.200Z,30.78
2022-07-27T18:18:54.887Z,30.66
2022-07-27T18:23:47.210Z,30.55
2022-07-27T18:28:40.370Z,30.65
2022-07-27T18:33:34.157Z,30.55
2022-07-27T18:38:25.426Z,30.72
2022-07-27T18:43:18.027Z,30.74
2022-07-27T18:48:11.023Z,30.76
2022-07-27T18:53:03.348Z,30.44
2022-07-27T18:57:55.660Z,30.25
2022-07-27T19:02:47.928Z,29.84
2022-07-27T19:07:40.430Z,29.26
2022-07-27T19:12:33.007Z,29.28
2022-07-27T19:17:25.812Z,29.19
2022-07-27T19:22:18.257Z,29.22
2022-07-27T19:27:10.811Z,29.37
2022-07-27T19:32:03.277Z,29.36
2022-07-27T19:36:55.613Z,29.34
2022-07-27T19:41:48.343Z,29.44
2022-07-27T19:46:40.989Z,29.73
2022-07-27T19:51:33.221Z,29.76
2022-07-27T20:01:14.048Z,29.86
2022-07-27T20:06:07.539Z,29.94
2022-07-27T20:11:00.106Z,30.3
2022-07-27T20:15:52.532Z,30.55
2022-07-27T20:20:45.043Z,30.76
2022-07-27T20:25:37.694Z,30.68
2022-07-27T20:30:30.563Z,30.57
2022-07-27T20:35:23.065Z,30.7
2022-07-27T20:40:15.547Z,30.95
2022-07-27T20:45:07.967Z,30.98
2022-07-27T20:50:00.606Z,30.9
2022-07-27T20:54:53.088Z,30.89
2022-07-27T20:59:45.523Z,31.01
2022-07-27T21:04:37.995Z,31.14
2022-07-27T21:09:30.571Z,31.09
2022-07-27T21:14:22.786Z,31.52
2022-07-27T21:19:15.838Z,31.5
2022-07-27T21:24:07.752Z,31.34
2022-07-27T21:29:00.345Z,31.7
2022-07-27T21:33:53.921Z,31.46
2022-07-27T21:38:46.375Z,31.54
2022-07-27T21:43:38.991Z,31.55
2022-07-27T21:48:31.664Z,31.92
2022-07-27T21:53:24.204Z,31.77
2022-07-27T21:58:16.743Z,31.86
2022-07-27T22:03:09.167Z,31.91
2022-07-27T22:08:01.694Z,31.99
2022-07-27T22:12:54.270Z,32
2022-07-27T22:17:49.963Z,31.86
2022-07-27T22:22:39.521Z,31.92
2022-07-27T22:27:32.175Z,31.88
2022-07-27T22:32:24.719Z,31.89
2022-07-27T22:37:17.343Z,31.96
2022-07-27T22:42:09.719Z,32.07
2022-07-27T22:47:02.556Z,32.03
2022-07-27T22:56:47.579Z,31.9
2022-07-27T23:06:32.905Z,32.12
2022-07-27T23:16:17.907Z,32.05
2022-07-27T23:26:02.890Z,31.98
2022-07-27T23:30:55.660Z,31.92
2022-07-27T23:35:48.094Z,32.11
2022-07-27T23:40:40.689Z,32.05
2022-07-27T23:45:33.595Z,31.93
2022-07-27T23:50:26.228Z,31.99
2022-07-27T23:55:18.622Z,31.99
